Map

Track Data

SID SEASON NUMBER BASIN SUBBASIN NAME ISO_TIME NATURE LAT LON WMO_WIND WMO_PRES WMO_AGENCY TRACK_TYPE DIST2LAND LANDFALL IFLAG USA_AGENCY USA_ATCF_ID USA_LAT USA_LON USA_RECORD USA_STATUS USA_WIND USA_PRES USA_SSHS USA_R34_NE USA_R34_SE USA_R34_SW USA_R34_NW USA_R50_NE USA_R50_SE USA_R50_SW USA_R50_NW USA_R64_NE USA_R64_SE USA_R64_SW USA_R64_NW USA_POCI USA_ROCI USA_RMW USA_EYE TOKYO_LAT TOKYO_LON TOKYO_GRADE TOKYO_WIND TOKYO_PRES TOKYO_R50_DIR TOKYO_R50_LONG TOKYO_R50_SHORT TOKYO_R30_DIR TOKYO_R30_LONG TOKYO_R30_SHORT TOKYO_LAND CMA_LAT CMA_LON CMA_CAT CMA_WIND CMA_PRES HKO_LAT HKO_LON HKO_CAT HKO_WIND HKO_PRES NEWDELHI_LAT NEWDELHI_LON NEWDELHI_GRADE NEWDELHI_WIND NEWDELHI_PRES NEWDELHI_CI NEWDELHI_DP NEWDELHI_POCI REUNION_LAT REUNION_LON REUNION_TYPE REUNION_WIND REUNION_PRES REUNION_TNUM REUNION_CI REUNION_RMW REUNION_R34_NE REUNION_R34_SE REUNION_R34_SW REUNION_R34_NW REUNION_R50_NE REUNION_R50_SE REUNION_R50_SW REUNION_R50_NW REUNION_R64_NE REUNION_R64_SE REUNION_R64_SW REUNION_R64_NW BOM_LAT BOM_LON BOM_TYPE BOM_WIND BOM_PRES BOM_TNUM BOM_CI BOM_RMW BOM_R34_NE BOM_R34_SE BOM_R34_SW BOM_R34_NW BOM_R50_NE BOM_R50_SE BOM_R50_SW BOM_R50_NW BOM_R64_NE BOM_R64_SE BOM_R64_SW BOM_R64_NW BOM_ROCI BOM_POCI BOM_EYE BOM_POS_METHOD BOM_PRES_METHOD NADI_LAT NADI_LON NADI_CAT NADI_WIND NADI_PRES WELLINGTON_LAT WELLINGTON_LON WELLINGTON_WIND WELLINGTON_PRES DS824_LAT DS824_LON DS824_STAGE DS824_WIND DS824_PRES TD9636_LAT TD9636_LON TD9636_STAGE TD9636_WIND TD9636_PRES TD9635_LAT TD9635_LON TD9635_WIND TD9635_PRES TD9635_ROCI NEUMANN_LAT NEUMANN_LON NEUMANN_CLASS NEUMANN_WIND NEUMANN_PRES MLC_LAT MLC_LON MLC_CLASS MLC_WIND MLC_PRES USA_GUST BOM_GUST BOM_GUST_PER REUNION_GUST REUNION_GUST_PER USA_SEAHGT USA_SEARAD_NE USA_SEARAD_SE USA_SEARAD_SW USA_SEARAD_NW STORM_SPEED STORM_DIR
1992288N10089 1992 109 NI BB NOT_NAMED 1992-10-13 18:00:00 NR 10.1000 89.1000 main 840 798 O_____________ jtwc_io IO081992 10.1000 89.1000 15 -1 10 270
1992288N10089 1992 109 NI BB NOT_NAMED 1992-10-13 21:00:00 NR 10.1002 88.6000 main 798 747 P_____________ IO081992 10.1002 88.6000 15 -1 10 270
1992288N10089 1992 109 NI BB NOT_NAMED 1992-10-14 00:00:00 NR 10.1000 88.1000 main 747 696 O_____________ jtwc_io IO081992 10.1000 88.1000 15 -1 10 270
1992288N10089 1992 109 NI BB NOT_NAMED 1992-10-14 03:00:00 NR 10.0999 87.6000 main 696 646 P_____________ IO081992 10.0999 87.6000 15 -1 10 270
1992288N10089 1992 109 NI BB NOT_NAMED 1992-10-14 06:00:00 NR 10.1000 87.1000 main 646 597 O_____________ jtwc_io IO081992 10.1000 87.1000 15 -1 10 269
1992288N10089 1992 109 NI BB NOT_NAMED 1992-10-14 09:00:00 NR 10.0850 86.5849 main 597 547 P_____________ IO081992 10.0850 86.5849 15 -1 10 270
1992288N10089 1992 109 NI BB NOT_NAMED 1992-10-14 12:00:00 NR 10.1000 86.1000 main 547 508 O_____________ jtwc_io IO081992 10.1000 86.1000 15 -1 9 275
1992288N10089 1992 109 NI BB NOT_NAMED 1992-10-14 15:00:00 NR 10.1625 85.6475 main 503 478 P_____________ IO081992 10.1625 85.6475 15 -1 8 284
1992288N10089 1992 109 NI BB NOT_NAMED 1992-10-14 18:00:00 NR 10.3000 85.3000 main 478 463 O_____________ jtwc_io IO081992 10.3000 85.3000 15 -1 7 303
1992288N10089 1992 109 NI BB NOT_NAMED 1992-10-14 21:00:00 NR 10.5199 85.0975 main 469 465 P_____________ IO081992 10.5199 85.0975 15 -1 6 329
1992288N10089 1992 109 NI BB NOT_NAMED 1992-10-15 00:00:00 NR 10.8000 85.0000 main 477 477 O_____________ jtwc_io IO081992 10.8000 85.0000 15 -1 6 345
1992288N10089 1992 109 NI BB NOT_NAMED 1992-10-15 03:00:00 NR 11.1075 84.9350 main 486 486 P_____________ IO081992 11.1075 84.9350 15 -1 6 351
1992288N10089 1992 109 NI BB NOT_NAMED 1992-10-15 06:00:00 NR 11.4000 84.9000 main 505 505 O_____________ jtwc_io IO081992 11.4000 84.9000 15 -1 5 353
1992288N10089 1992 109 NI BB NOT_NAMED 1992-10-15 09:00:00 NR 11.6225 84.8650 main 517 506 P_____________ IO081992 11.6225 84.8650 15 -1 4 347
1992288N10089 1992 109 NI BB NOT_NAMED 1992-10-15 12:00:00 NR 11.8000 84.8000 main 506 492 O_____________ jtwc_io IO081992 11.8000 84.8000 15 -1 4 331
1992288N10089 1992 109 NI BB NOT_NAMED 1992-10-15 15:00:00 NR 11.9725 84.6650 main 492 469 P_____________ IO081992 11.9725 84.6650 15 -1 4 316
1992288N10089 1992 109 NI BB NOT_NAMED 1992-10-15 18:00:00 NR 12.1000 84.5000 main 469 457 O_____________ jtwc_io IO081992 12.1000 84.5000 15 -1 4 302
1992288N10089 1992 109 NI BB NOT_NAMED 1992-10-15 21:00:00 NR 12.1575 84.3574 main 457 436 P_____________ IO081992 12.1575 84.3574 15 -1 3 289
1992288N10089 1992 109 NI BB NOT_NAMED 1992-10-16 00:00:00 NR 12.2000 84.2000 main 436 413 O_____________ jtwc_io IO081992 12.2000 84.2000 15 -1 4 293
1992288N10089 1992 109 NI BB NOT_NAMED 1992-10-16 03:00:00 NR 12.3000 84.0075 main 413 391 P_____________ IO081992 12.3000 84.0075 15 -1 4 297
1992288N10089 1992 109 NI BB NOT_NAMED 1992-10-16 06:00:00 NR 12.4000 83.8000 main 391 368 O_____________ jtwc_io IO081992 12.4000 83.8000 15 -1 4 292
1992288N10089 1992 109 NI BB NOT_NAMED 1992-10-16 09:00:00 NR 12.4575 83.6000 main 368 347 P_____________ IO081992 12.4575 83.6000 15 -1 4 284
1992288N10089 1992 109 NI BB NOT_NAMED 1992-10-16 12:00:00 NR 12.5000 83.4000 main 347 325 O_____________ jtwc_io IO081992 12.5000 83.4000 15 -1 4 280
1992288N10089 1992 109 NI BB NOT_NAMED 1992-10-16 15:00:00 NR 12.5275 83.1775 main 325 303 P_____________ IO081992 12.5275 83.1775 15 -1 4 284
1992288N10089 1992 109 NI BB NOT_NAMED 1992-10-16 18:00:00 NR 12.6000 83.0000 main 303 287 O_____________ jtwc_io IO081992 12.6000 83.0000 15 -1 4 314
1992288N10089 1992 109 NI BB NOT_NAMED 1992-10-16 21:00:00 NR 12.7775 82.9125 main 287 283 P_____________ IO081992 12.7775 82.9125 15 -1 4 347
1992288N10089 1992 109 NI BB NOT_NAMED 1992-10-17 00:00:00 NR 13.0000 82.9000 main 283 281 O_____________ jtwc_io IO081992 13.0000 82.9000 15 -1 4 0
1992288N10089 1992 109 NI BB NOT_NAMED 1992-10-17 03:00:00 NR 13.2075 82.9275 main 281 281 P_____________ IO081992 13.2075 82.9275 15 -1 4 13
1992288N10089 1992 109 NI BB NOT_NAMED 1992-10-17 06:00:00 NR 13.4000 83.0000 main 292 292 O_____________ jtwc_io IO081992 13.4000 83.0000 15 -1 4 23
1992288N10089 1992 109 NI BB NOT_NAMED 1992-10-17 09:00:00 NR 13.5575 83.0850 main 302 302 P_____________ IO081992 13.5575 83.0850 15 -1 4 33
1992288N10089 1992 109 NI BB NOT_NAMED 1992-10-17 12:00:00 NR 13.7000 83.2000 main 313 313 O_____________ jtwc_io IO081992 13.7000 83.2000 15 -1 4 40
1992288N10089 1992 109 NI BB NOT_NAMED 1992-10-17 15:00:00 NR 13.8575 83.3425 main 317 312 P_____________ IO081992 13.8575 83.3425 15 -1 4 44
1992288N10089 1992 109 NI BB NOT_NAMED 1992-10-17 18:00:00 NR 14.0000 83.5000 main 317 312 O_____________ jtwc_io IO081992 14.0000 83.5000 15 -1 4 51
1992288N10089 1992 109 NI BB NOT_NAMED 1992-10-17 21:00:00 NR 14.1000 83.6500 main 317 307 P_____________ IO081992 14.1000 83.6500 15 -1 4 56
1992288N10089 1992 109 NI BB NOT_NAMED 1992-10-18 00:00:00 NR 14.2000 83.8000 main 313 309 O_____________ jtwc_io IO081992 14.2000 83.8000 15 -1 4 50
1992288N10089 1992 109 NI BB NOT_NAMED 1992-10-18 03:00:00 NR 14.3425 83.9500 main 315 304 P_____________ IO081992 14.3425 83.9500 15 -1 4 44
1992288N10089 1992 109 NI BB NOT_NAMED 1992-10-18 06:00:00 NR 14.5000 84.1000 main 304 302 O_____________ jtwc_io IO081992 14.5000 84.1000 15 -1 4 44
1992288N10089 1992 109 NI BB NOT_NAMED 1992-10-18 09:00:00 NR 14.6425 84.2500 main 309 301 P_____________ IO081992 14.6425 84.2500 15 -1 4 44
1992288N10089 1992 109 NI BB NOT_NAMED 1992-10-18 12:00:00 NR 14.8000 84.4000 main 301 294 O_____________ jtwc_io IO081992 14.8000 84.4000 15 -1 5 39
1992288N10089 1992 109 NI BB NOT_NAMED 1992-10-18 15:00:00 NR 14.9925 84.5425 main 295 295 P_____________ IO081992 14.9925 84.5425 17 -1 5 36
1992288N10089 1992 109 NI BB NOT_NAMED 1992-10-18 18:00:00 NR 15.2000 84.7000 main 300 295 O_____________ jtwc_io IO081992 15.2000 84.7000 20 -1 5 39
1992288N10089 1992 109 NI BB NOT_NAMED 1992-10-18 21:00:00 NR 15.3850 84.8776 main 305 296 P_____________ IO081992 15.3850 84.8776 20 -1 6 44
1992288N10089 1992 109 NI BB NOT_NAMED 1992-10-19 00:00:00 NR 15.6000 85.1000 main 301 300 O_____________ jtwc_io IO081992 15.6000 85.1000 20 -1 7 45
1992288N10089 1992 109 NI BB NOT_NAMED 1992-10-19 03:00:00 NR 15.8775 85.3925 main 300 290 P_____________ IO081992 15.8775 85.3925 20 -1 8 44
1992288N10089 1992 109 NI BB NOT_NAMED 1992-10-19 06:00:00 NR 16.2000 85.7000 main 290 277 O_____________ jtwc_io IO081992 16.2000 85.7000 20 -1 9 39
1992288N10089 1992 109 NI BB NOT_NAMED 1992-10-19 09:00:00 NR 16.5499 85.9501 main 285 269 P_____________ IO081992 16.5499 85.9501 20 -1 9 34
1992288N10089 1992 109 NI BB NOT_NAMED 1992-10-19 12:00:00 NR 16.9000 86.2000 main 269 261 O_____________ jtwc_io IO081992 16.9000 86.2000 20 -1 8 38
1992288N10089 1992 109 NI BB NOT_NAMED 1992-10-19 15:00:00 NR 17.2150 86.4926 main 269 261 P_____________ IO081992 17.2150 86.4926 20 -1 8 44
1992288N10089 1992 109 NI BB NOT_NAMED 1992-10-19 18:00:00 NR 17.5000 86.8000 main 274 256 O_____________ jtwc_io IO081992 17.5000 86.8000 20 -1 8 45
1992288N10089 1992 109 NI BB NOT_NAMED 1992-10-19 21:00:00 NR 17.7724 87.0851 main 256 249 P_____________ IO081992 17.7724 87.0851 20 -1 9 57
1992288N10089 1992 109 NI BB NOT_NAMED 1992-10-20 00:00:00 NR 18.0000 87.6200 1004 newdelhi main 256 256 O___O_________ jtwc_io IO081992 18.0000 87.4000 20 -1 18.0000 88.5000 1004 0.00000 2 1002 11 66
1992288N10089 1992 109 NI BB NOT_NAMED 1992-10-20 03:00:00 NR 18.2034 88.1233 main 269 269 P___P_________ IO081992 18.1800 87.7850 22 -1 18.2502 88.7997 1004 2 1004 10 66
1992288N10089 1992 109 NI BB NOT_NAMED 1992-10-20 06:00:00 NR 18.3857 88.5429 1004 newdelhi main 284 284 O___O_________ jtwc_io IO081992 18.3000 88.2000 25 -1 18.5000 89.0000 1004 0.00000 2 1006 7 62
1992288N10089 1992 109 NI BB NOT_NAMED 1992-10-20 09:00:00 NR 18.5499 88.8189 main 298 290 P___P_________ IO081992 18.3499 88.6002 25 -1 18.7499 89.0377 1002 3 1005 5 54
1992288N10089 1992 109 NI BB NOT_NAMED 1992-10-20 12:00:00 NR 18.7000 89.0000 25 1000 newdelhi main 300 296 O___O_________ jtwc_io IO081992 18.4000 89.0000 25 -1 19.0000 89.0000 25 1000 1.50000 4 1004 5 45
1992288N10089 1992 109 NI BB NOT_NAMED 1992-10-20 15:00:00 NR 18.9000 89.1888 main 302 280 P___P_________ IO081992 18.5125 89.4151 25 -1 19.2874 88.9625 25 1001 4 1005 6 43
1992288N10089 1992 109 NI BB NOT_NAMED 1992-10-20 18:00:00 NR 19.1000 89.4000 25 1002 newdelhi main 281 271 O___O_________ jtwc_io IO081992 18.7000 89.8000 25 -1 19.5000 89.0000 25 1002 1.50000 4 1006 5 54
1992288N10089 1992 109 NI BB NOT_NAMED 1992-10-20 21:00:00 NR 19.2161 89.6454 main 273 259 P___P_________ IO081992 18.9699 90.1151 25 -1 19.4624 89.1757 27 1001 5 1006 6 60
1992288N10089 1992 109 NI BB NOT_NAMED 1992-10-21 00:00:00 NR 19.4000 89.9500 30 1000 newdelhi main 263 223 O___O_________ jtwc_io IO081992 19.3000 90.4000 25 -1 19.5000 89.5000 30 1000 2.00000 6 1006 9 47
1992288N10089 1992 109 NI BB NOT_NAMED 1992-10-21 03:00:00 NR 19.7949 90.3123 main 223 183 P___P_________ IO081992 19.6272 90.6630 27 -1 19.9626 89.9617 32 999 7 1006 11 42
1992288N10089 1992 109 NI BB NOT_NAMED 1992-10-21 06:00:00 NR 20.2500 90.7500 35 998 newdelhi main 168 115 O___O_________ jtwc_io IO081992 20.0000 91.0000 30 -1 20.5000 90.5000 35 998 2.50000 8 1006 12 47
1992288N10089 1992 109 NI BB NOT_NAMED 1992-10-21 09:00:00 NR 20.6338 91.2712 main 106 45 P___P_________ IO081992 20.4426 91.5049 30 -1 20.8251 91.0376 35 997 8 1005 12 55
1992288N10089 1992 109 NI BB NOT_NAMED 1992-10-21 12:00:00 NR 20.9500 91.8000 35 996 newdelhi main 38 10 O___O_________ jtwc_io IO081992 20.9000 92.1000 30 -1 21.0000 91.5000 35 996 2.50000 8 1004 10 58
1992288N10089 1992 109 NI BB NOT_NAMED 1992-10-21 15:00:00 NR 21.1529 92.1695 main 0 0 P___P_________ IO081992 21.3445 92.6625 30 -1 20.9613 91.6765 35 997 8 1005 8 64
1992288N10089 1992 109 NI BB NOT_NAMED 1992-10-21 18:00:00 NR 21.3000 92.5571 35 998 newdelhi main 0 0 O___O_________ jtwc_io IO081992 21.7000 93.3000 30 -1 21.0000 92.0000 35 998 2.50000 8 1006 12 67
1992288N10089 1992 109 NI BB NOT_NAMED 1992-10-21 21:00:00 NR 21.6095 93.3523 main 0 0 P___P_________ IO081992 21.8986 94.0625 27 -1 21.4649 92.9972 30 999 6 1005 17 66
1992288N10089 1992 109 NI BB NOT_NAMED 1992-10-22 00:00:00 NR 22.0000 94.2250 25 1000 newdelhi main 0 0 O___O_________ jtwc_io IO081992 22.0000 94.9000 25 -1 22.0000 94.0000 25 1000 0.00000 4 1004 12 55
1992288N10089 1992 109 NI BB NOT_NAMED 1992-10-22 03:00:00 NR 22.3233 94.4393 main 0 0 ____P_________ IO081992 -1 22.3233 94.4393 1002 3 1005 6 27
1992288N10089 1992 109 NI BB NOT_NAMED 1992-10-22 06:00:00 NR 22.5000 94.5000 1004 newdelhi main 0 ____O_________ -1 22.5000 94.5000 1004 0.00000 2 1006 4 18

About IBTrACS Database

This database is a web-friendly format of International Best Track Archive for Climate Stewardship (IBTrACS), a global best track data archive curated by NOAA dating back to 1842.

Updated: 2021-10-08